Aeroporto :
LOGIN :

Iscrizione | Disclaimer

   EN    FR    IT 

 










Sommario :    VFR   VFR Marginale   IFR   IFR Intensivo   IFR Molto Intensivo
Visibilità : 
Base nubi : 
>= 8 km
>= 3000ft
5 / 8 km
1000 / 3000 ft
1500m / 5 km
500 / 1000 ft
800 / 1500m
200 / 500 ft
< 800m
< 200 ft
Simboli :   Temporali  Nebbia  Neve Forte  Precipitazioni Forti  Vento > 20 kt
SIGMETs :   Varie  Temporali  Ghiacco  Turbolenza  Onda orograficha  Ceneri Vulcaniche







- Altitudine del aeroporto : 106 ft
- Codice IATA : XDA
- Carte del aeroporto


LFBY - Dax Seyresse

ULTIMO METAR :
  • 210430Z AUTO 28012KT 260V330 1400 // BKN009 BKN014 OVC021 13/12 Q1024

METARs OBSOLETI :
  • 210400Z AUTO 29010G21KT 250V320 1500 1300 // BKN009 OVC014 13/12 Q1024
  • 210330Z AUTO 29013KT 260V320 1400 // BKN008 OVC015 13/12 Q1024
  • 210300Z AUTO 28012KT 260V320 1400 // BKN008 OVC014 13/12 Q1024
  • 210230Z AUTO 29010G20KT 260V320 1400 1300 // BKN008 BKN012 OVC018 13/12 Q1024
  • 210200Z AUTO 28010KT 250V320 1300 // BKN009 OVC017 13/12 Q1024

Previsioni scadute.
Nessun NOTAM noto per questo aeroporto.
1 SIGMET conosciuto per la FIR Bordeaux (LFBB) :
 
Forte onda orograficha
LFBB SIGMET 1 VALID 210300/210700 LFPW
LFBB BORDEAUX FIR/UIR SEV MTW FCST WI N4245 E00230 - N4215 E00230 - N4245 E00000 - N4300 E00000 - N4245 E00230 SFC/FL350 STNR NC=



MetMap, La meteo Aeronautica in un colpo d'occhio ! - Copyright ORBIFLY Dicembre 2007 - Disclaimer

ORBIFLY MET'MAP TEAM :

Programmazione e sviluppo : Alexandra Zaïnal
Concezione e sviluppo : Baudouin d'Aumeries
Co-Programmazione e sviluppo : Marc-Olivier Méhu
Supporto tecnico e logistico : Manuel Goepfert
Aiuto per la traduzione : Arnaldo La Scala

Contatto : metmap@orbifly.com




FONTI E CREDITI :

   NOAA